sensor_id;sensor_type;location;lat;lon;timestamp;P1;durP1;ratioP1;P2;durP2;ratioP2
77287;SDS011;66345;42.694;23.346;2023-02-28T00:01:08;22.00;;;9.85;;
77287;SDS011;66345;42.694;23.346;2023-02-28T00:03:33;22.60;;;10.00;;
77287;SDS011;66345;42.694;23.346;2023-02-28T00:06:00;21.45;;;9.50;;
77287;SDS011;66345;42.694;23.346;2023-02-28T00:08:29;22.00;;;9.70;;
77287;SDS011;66345;42.694;23.346;2023-02-28T00:10:54;22.43;;;9.00;;
77287;SDS011;66345;42.694;23.346;2023-02-28T00:13:20;22.00;;;9.80;;
77287;SDS011;66345;42.694;23.346;2023-02-28T00:15:45;20.17;;;8.93;;
77287;SDS011;66345;42.694;23.346;2023-02-28T00:18:11;23.10;;;9.60;;
77287;SDS011;66345;42.694;23.346;2023-02-28T00:20:36;22.43;;;9.97;;
77287;SDS011;66345;42.694;23.346;2023-02-28T00:23:02;22.77;;;9.75;;
77287;SDS011;66345;42.694;23.346;2023-02-28T00:25:28;23.23;;;10.60;;
77287;SDS011;66345;42.694;23.346;2023-02-28T00:27:53;23.40;;;11.55;;
77287;SDS011;66345;42.694;23.346;2023-02-28T00:30:20;25.00;;;10.20;;
77287;SDS011;66345;42.694;23.346;2023-02-28T00:32:47;24.77;;;10.40;;
77287;SDS011;66345;42.694;23.346;2023-02-28T00:35:13;21.60;;;10.17;;
77287;SDS011;66345;42.694;23.346;2023-02-28T00:37:38;23.55;;;11.13;;
77287;SDS011;66345;42.694;23.346;2023-02-28T00:40:04;25.77;;;11.13;;
77287;SDS011;66345;42.694;23.346;2023-02-28T00:42:31;26.58;;;11.82;;
77287;SDS011;66345;42.694;23.346;2023-02-28T00:44:57;24.67;;;11.70;;
77287;SDS011;66345;42.694;23.346;2023-02-28T00:47:22;24.45;;;11.77;;
77287;SDS011;66345;42.694;23.346;2023-02-28T00:49:48;26.67;;;11.87;;
77287;SDS011;66345;42.694;23.346;2023-02-28T02:57:29;32.70;;;13.33;;
77287;SDS011;66345;42.694;23.346;2023-02-28T03:00:02;30.95;;;12.60;;
77287;SDS011;66345;42.694;23.346;2023-02-28T03:02:30;30.10;;;12.80;;
77287;SDS011;66345;42.694;23.346;2023-02-28T03:05:00;31.88;;;13.90;;
77287;SDS011;66345;42.694;23.346;2023-02-28T03:07:29;33.30;;;13.48;;
77287;SDS011;66345;42.694;23.346;2023-02-28T03:09:55;31.27;;;12.70;;
77287;SDS011;66345;42.694;23.346;2023-02-28T03:18:26;33.92;;;12.73;;
77287;SDS011;66345;42.694;23.346;2023-02-28T03:21:03;28.85;;;12.18;;
77287;SDS011;66345;42.694;23.346;2023-02-28T03:24:11;30.45;;;12.20;;
77287;SDS011;66345;42.694;23.346;2023-02-28T03:26:44;31.48;;;11.93;;
77287;SDS011;66345;42.694;23.346;2023-02-28T03:29:28;31.00;;;12.80;;
77287;SDS011;66345;42.694;23.346;2023-02-28T03:32:27;29.83;;;12.90;;
77287;SDS011;66345;42.694;23.346;2023-02-28T03:37:31;32.75;;;12.13;;
77287;SDS011;66345;42.694;23.346;2023-02-28T03:40:03;37.00;;;12.13;;
77287;SDS011;66345;42.694;23.346;2023-02-28T03:42:34;33.07;;;14.07;;
77287;SDS011;66345;42.694;23.346;2023-02-28T03:45:19;34.75;;;13.07;;
77287;SDS011;66345;42.694;23.346;2023-02-28T03:52:57;36.55;;;14.05;;
77287;SDS011;66345;42.694;23.346;2023-02-28T03:55:33;34.05;;;13.70;;
77287;SDS011;66345;42.694;23.346;2023-02-28T03:58:05;33.95;;;13.10;;
77287;SDS011;66345;42.694;23.346;2023-02-28T04:00:40;35.37;;;14.87;;
77287;SDS011;66345;42.694;23.346;2023-02-28T04:03:20;31.58;;;13.48;;
77287;SDS011;66345;42.694;23.346;2023-02-28T04:05:47;36.47;;;14.03;;
77287;SDS011;66345;42.694;23.346;2023-02-28T04:08:16;33.75;;;13.30;;
77287;SDS011;66345;42.694;23.346;2023-02-28T04:10:42;36.70;;;14.53;;
77287;SDS011;66345;42.694;23.346;2023-02-28T04:13:13;38.47;;;15.75;;
77287;SDS011;66345;42.694;23.346;2023-02-28T04:15:38;36.50;;;14.87;;
77287;SDS011;66345;42.694;23.346;2023-02-28T04:18:03;33.92;;;13.95;;
77287;SDS011;66345;42.694;23.346;2023-02-28T04:20:29;34.63;;;13.57;;
77287;SDS011;66345;42.694;23.346;2023-02-28T04:22:54;36.47;;;13.90;;
77287;SDS011;66345;42.694;23.346;2023-02-28T04:25:20;35.13;;;14.30;;
77287;SDS011;66345;42.694;23.346;2023-02-28T04:27:45;32.50;;;12.97;;
77287;SDS011;66345;42.694;23.346;2023-02-28T04:30:10;35.55;;;13.75;;
77287;SDS011;66345;42.694;23.346;2023-02-28T04:32:37;33.87;;;13.47;;
77287;SDS011;66345;42.694;23.346;2023-02-28T04:35:02;42.22;;;14.38;;
77287;SDS011;66345;42.694;23.346;2023-02-28T04:37:28;39.03;;;15.10;;
77287;SDS011;66345;42.694;23.346;2023-02-28T04:39:53;45.33;;;14.73;;
77287;SDS011;66345;42.694;23.346;2023-02-28T04:42:19;40.03;;;13.10;;
77287;SDS011;66345;42.694;23.346;2023-02-28T04:44:45;38.60;;;13.60;;
77287;SDS011;66345;42.694;23.346;2023-02-28T04:47:10;37.47;;;13.90;;
77287;SDS011;66345;42.694;23.346;2023-02-28T04:49:36;36.73;;;14.80;;
77287;SDS011;66345;42.694;23.346;2023-02-28T04:52:01;38.40;;;14.03;;
77287;SDS011;66345;42.694;23.346;2023-02-28T04:54:27;39.20;;;14.45;;
77287;SDS011;66345;42.694;23.346;2023-02-28T04:56:53;33.43;;;14.53;;
77287;SDS011;66345;42.694;23.346;2023-02-28T04:59:19;39.58;;;14.98;;
77287;SDS011;66345;42.694;23.346;2023-02-28T05:01:46;41.20;;;15.82;;
77287;SDS011;66345;42.694;23.346;2023-02-28T05:04:13;40.25;;;15.07;;
77287;SDS011;66345;42.694;23.346;2023-02-28T05:06:38;44.20;;;16.47;;
77287;SDS011;66345;42.694;23.346;2023-02-28T05:09:04;43.53;;;15.10;;
77287;SDS011;66345;42.694;23.346;2023-02-28T05:11:30;45.03;;;15.77;;
77287;SDS011;66345;42.694;23.346;2023-02-28T05:14:04;36.97;;;13.38;;
77287;SDS011;66345;42.694;23.346;2023-02-28T05:16:32;37.05;;;13.93;;
77287;SDS011;66345;42.694;23.346;2023-02-28T05:18:58;36.03;;;14.00;;
77287;SDS011;66345;42.694;23.346;2023-02-28T05:23:58;36.60;;;14.07;;
77287;SDS011;66345;42.694;23.346;2023-02-28T05:26:25;40.10;;;14.95;;
77287;SDS011;66345;42.694;23.346;2023-02-28T05:28:51;35.00;;;14.57;;
77287;SDS011;66345;42.694;23.346;2023-02-28T05:31:18;38.88;;;14.32;;
77287;SDS011;66345;42.694;23.346;2023-02-28T05:33:44;39.70;;;14.73;;
77287;SDS011;66345;42.694;23.346;2023-02-28T05:36:09;42.53;;;15.38;;
77287;SDS011;66345;42.694;23.346;2023-02-28T05:38:35;44.80;;;16.07;;
77287;SDS011;66345;42.694;23.346;2023-02-28T05:41:04;49.47;;;17.57;;
77287;SDS011;66345;42.694;23.346;2023-02-28T05:43:30;51.15;;;18.42;;
77287;SDS011;66345;42.694;23.346;2023-02-28T05:45:55;49.40;;;19.13;;
77287;SDS011;66345;42.694;23.346;2023-02-28T05:48:21;51.80;;;17.98;;
77287;SDS011;66345;42.694;23.346;2023-02-28T05:50:46;49.65;;;18.00;;
77287;SDS011;66345;42.694;23.346;2023-02-28T05:53:12;56.83;;;20.67;;
77287;SDS011;66345;42.694;23.346;2023-02-28T05:55:37;50.23;;;19.30;;
77287;SDS011;66345;42.694;23.346;2023-02-28T05:58:03;53.90;;;18.93;;
77287;SDS011;66345;42.694;23.346;2023-02-28T06:00:28;54.40;;;19.33;;
77287;SDS011;66345;42.694;23.346;2023-02-28T06:02:54;55.13;;;18.27;;
77287;SDS011;66345;42.694;23.346;2023-02-28T06:05:23;44.92;;;19.40;;
77287;SDS011;66345;42.694;23.346;2023-02-28T06:07:48;49.22;;;19.55;;
77287;SDS011;66345;42.694;23.346;2023-02-28T06:10:14;49.50;;;19.20;;
77287;SDS011;66345;42.694;23.346;2023-02-28T06:12:40;47.43;;;18.70;;
77287;SDS011;66345;42.694;23.346;2023-02-28T06:15:11;46.30;;;18.17;;
77287;SDS011;66345;42.694;23.346;2023-02-28T06:17:39;50.58;;;18.35;;
77287;SDS011;66345;42.694;23.346;2023-02-28T06:20:05;45.28;;;17.60;;
77287;SDS011;66345;42.694;23.346;2023-02-28T06:22:31;41.10;;;17.17;;
77287;SDS011;66345;42.694;23.346;2023-02-28T06:24:56;41.30;;;17.98;;
77287;SDS011;66345;42.694;23.346;2023-02-28T06:27:22;40.90;;;16.53;;
77287;SDS011;66345;42.694;23.346;2023-02-28T06:29:48;39.78;;;16.42;;
77287;SDS011;66345;42.694;23.346;2023-02-28T06:32:13;37.93;;;14.97;;
77287;SDS011;66345;42.694;23.346;2023-02-28T06:34:39;43.00;;;17.20;;
77287;SDS011;66345;42.694;23.346;2023-02-28T06:37:04;37.07;;;17.17;;
77287;SDS011;66345;42.694;23.346;2023-02-28T06:39:30;40.58;;;17.73;;
77287;SDS011;66345;42.694;23.346;2023-02-28T06:41:56;43.03;;;17.67;;
77287;SDS011;66345;42.694;23.346;2023-02-28T06:44:22;39.20;;;16.40;;
77287;SDS011;66345;42.694;23.346;2023-02-28T06:46:48;40.37;;;17.90;;
77287;SDS011;66345;42.694;23.346;2023-02-28T06:49:14;41.95;;;17.42;;
77287;SDS011;66345;42.694;23.346;2023-02-28T06:51:40;100.50;;;38.92;;
77287;SDS011;66345;42.694;23.346;2023-02-28T06:54:09;44.10;;;17.83;;
77287;SDS011;66345;42.694;23.346;2023-02-28T06:56:36;52.25;;;19.02;;
77287;SDS011;66345;42.694;23.346;2023-02-28T06:59:03;42.25;;;17.02;;
77287;SDS011;66345;42.694;23.346;2023-02-28T07:01:29;45.45;;;18.30;;
77287;SDS011;66345;42.694;23.346;2023-02-28T07:03:56;42.43;;;17.77;;
77287;SDS011;66345;42.694;23.346;2023-02-28T07:06:22;43.05;;;18.15;;
77287;SDS011;66345;42.694;23.346;2023-02-28T07:08:49;41.08;;;17.90;;
77287;SDS011;66345;42.694;23.346;2023-02-28T07:11:18;40.70;;;17.08;;
77287;SDS011;66345;42.694;23.346;2023-02-28T07:13:44;38.35;;;16.10;;
77287;SDS011;66345;42.694;23.346;2023-02-28T07:16:12;43.80;;;17.17;;
77287;SDS011;66345;42.694;23.346;2023-02-28T07:18:38;40.22;;;17.00;;
77287;SDS011;66345;42.694;23.346;2023-02-28T07:21:04;43.25;;;17.10;;
77287;SDS011;66345;42.694;23.346;2023-02-28T07:23:32;41.30;;;17.50;;
77287;SDS011;66345;42.694;23.346;2023-02-28T07:25:58;47.22;;;18.63;;
77287;SDS011;66345;42.694;23.346;2023-02-28T07:28:24;40.90;;;17.10;;
77287;SDS011;66345;42.694;23.346;2023-02-28T07:30:50;38.47;;;16.35;;
77287;SDS011;66345;42.694;23.346;2023-02-28T07:33:15;38.75;;;16.88;;
77287;SDS011;66345;42.694;23.346;2023-02-28T07:35:44;37.70;;;15.93;;
77287;SDS011;66345;42.694;23.346;2023-02-28T07:38:12;39.28;;;17.10;;
77287;SDS011;66345;42.694;23.346;2023-02-28T07:40:40;38.40;;;15.20;;
77287;SDS011;66345;42.694;23.346;2023-02-28T07:43:06;35.67;;;16.05;;
77287;SDS011;66345;42.694;23.346;2023-02-28T07:45:31;33.27;;;14.83;;
77287;SDS011;66345;42.694;23.346;2023-02-28T07:47:59;36.53;;;16.07;;
77287;SDS011;66345;42.694;23.346;2023-02-28T07:50:25;34.28;;;15.68;;
77287;SDS011;66345;42.694;23.346;2023-02-28T07:52:55;32.47;;;14.73;;
77287;SDS011;66345;42.694;23.346;2023-02-28T07:55:21;32.45;;;15.27;;
77287;SDS011;66345;42.694;23.346;2023-02-28T07:57:46;32.03;;;15.07;;
77287;SDS011;66345;42.694;23.346;2023-02-28T08:00:12;29.63;;;15.07;;
77287;SDS011;66345;42.694;23.346;2023-02-28T08:02:38;32.53;;;15.57;;
77287;SDS011;66345;42.694;23.346;2023-02-28T08:05:04;29.47;;;15.00;;
77287;SDS011;66345;42.694;23.346;2023-02-28T08:07:31;35.08;;;15.88;;
77287;SDS011;66345;42.694;23.346;2023-02-28T08:09:57;29.42;;;15.35;;
77287;SDS011;66345;42.694;23.346;2023-02-28T08:12:22;31.53;;;16.13;;
77287;SDS011;66345;42.694;23.346;2023-02-28T08:14:48;32.13;;;16.07;;
77287;SDS011;66345;42.694;23.346;2023-02-28T08:17:13;29.98;;;15.85;;
77287;SDS011;66345;42.694;23.346;2023-02-28T08:19:39;31.90;;;16.53;;
77287;SDS011;66345;42.694;23.346;2023-02-28T08:22:04;33.20;;;16.50;;
77287;SDS011;66345;42.694;23.346;2023-02-28T08:24:29;32.30;;;17.27;;
77287;SDS011;66345;42.694;23.346;2023-02-28T08:26:55;32.10;;;16.23;;
77287;SDS011;66345;42.694;23.346;2023-02-28T08:29:21;33.37;;;16.50;;
77287;SDS011;66345;42.694;23.346;2023-02-28T08:31:46;31.92;;;16.58;;
77287;SDS011;66345;42.694;23.346;2023-02-28T08:34:13;30.38;;;15.52;;
77287;SDS011;66345;42.694;23.346;2023-02-28T08:36:39;31.58;;;15.85;;
77287;SDS011;66345;42.694;23.346;2023-02-28T08:39:05;32.88;;;16.02;;
77287;SDS011;66345;42.694;23.346;2023-02-28T08:41:32;28.58;;;15.32;;
77287;SDS011;66345;42.694;23.346;2023-02-28T08:43:58;33.08;;;15.98;;
77287;SDS011;66345;42.694;23.346;2023-02-28T08:46:23;30.07;;;15.80;;
77287;SDS011;66345;42.694;23.346;2023-02-28T08:48:52;33.13;;;15.50;;
77287;SDS011;66345;42.694;23.346;2023-02-28T08:51:20;28.75;;;15.43;;
77287;SDS011;66345;42.694;23.346;2023-02-28T08:53:51;27.88;;;15.60;;
77287;SDS011;66345;42.694;23.346;2023-02-28T08:56:18;31.35;;;12.38;;
77287;SDS011;66345;42.694;23.346;2023-02-28T08:58:44;30.98;;;13.48;;
77287;SDS011;66345;42.694;23.346;2023-02-28T09:01:15;27.05;;;12.27;;
77287;SDS011;66345;42.694;23.346;2023-02-28T09:03:43;25.27;;;11.07;;
77287;SDS011;66345;42.694;23.346;2023-02-28T09:06:11;23.77;;;10.82;;
77287;SDS011;66345;42.694;23.346;2023-02-28T09:08:37;26.13;;;11.70;;
77287;SDS011;66345;42.694;23.346;2023-02-28T09:11:03;25.73;;;10.52;;
77287;SDS011;66345;42.694;23.346;2023-02-28T09:13:29;22.13;;;9.60;;
77287;SDS011;66345;42.694;23.346;2023-02-28T09:15:57;22.70;;;10.85;;
77287;SDS011;66345;42.694;23.346;2023-02-28T09:18:24;27.33;;;10.23;;
77287;SDS011;66345;42.694;23.346;2023-02-28T09:20:51;22.88;;;10.23;;
77287;SDS011;66345;42.694;23.346;2023-02-28T09:23:16;22.47;;;9.93;;
77287;SDS011;66345;42.694;23.346;2023-02-28T09:25:46;23.38;;;9.85;;
77287;SDS011;66345;42.694;23.346;2023-02-28T09:28:16;25.67;;;9.82;;
77287;SDS011;66345;42.694;23.346;2023-02-28T09:30:45;24.65;;;11.23;;
77287;SDS011;66345;42.694;23.346;2023-02-28T09:33:15;26.02;;;10.88;;
77287;SDS011;66345;42.694;23.346;2023-02-28T09:35:42;23.25;;;9.90;;
77287;SDS011;66345;42.694;23.346;2023-02-28T09:38:08;27.20;;;10.33;;
77287;SDS011;66345;42.694;23.346;2023-02-28T09:40:38;22.73;;;9.85;;
77287;SDS011;66345;42.694;23.346;2023-02-28T09:43:11;20.55;;;8.85;;
77287;SDS011;66345;42.694;23.346;2023-02-28T09:45:41;22.73;;;9.98;;
77287;SDS011;66345;42.694;23.346;2023-02-28T09:48:14;21.10;;;9.38;;
77287;SDS011;66345;42.694;23.346;2023-02-28T09:50:49;18.45;;;8.18;;
77287;SDS011;66345;42.694;23.346;2023-02-28T09:53:31;19.45;;;8.40;;
77287;SDS011;66345;42.694;23.346;2023-02-28T09:56:01;19.70;;;9.10;;
77287;SDS011;66345;42.694;23.346;2023-02-28T09:58:36;21.90;;;9.10;;
77287;SDS011;66345;42.694;23.346;2023-02-28T10:01:30;20.92;;;8.50;;
77287;SDS011;66345;42.694;23.346;2023-02-28T10:04:12;20.48;;;9.10;;
77287;SDS011;66345;42.694;23.346;2023-02-28T10:06:49;23.70;;;8.75;;
77287;SDS011;66345;42.694;23.346;2023-02-28T10:09:23;18.95;;;8.05;;
77287;SDS011;66345;42.694;23.346;2023-02-28T10:11:52;22.42;;;9.55;;
77287;SDS011;66345;42.694;23.346;2023-02-28T10:14:23;17.75;;;7.90;;
77287;SDS011;66345;42.694;23.346;2023-02-28T10:16:55;23.23;;;8.65;;
77287;SDS011;66345;42.694;23.346;2023-02-28T10:19:35;24.70;;;8.85;;
77287;SDS011;66345;42.694;23.346;2023-02-28T10:22:11;21.20;;;8.68;;
77287;SDS011;66345;42.694;23.346;2023-02-28T10:24:43;21.23;;;8.52;;
77287;SDS011;66345;42.694;23.346;2023-02-28T10:27:15;22.50;;;8.45;;
77287;SDS011;66345;42.694;23.346;2023-02-28T10:29:44;20.05;;;8.13;;
77287;SDS011;66345;42.694;23.346;2023-02-28T10:32:15;19.42;;;8.00;;
77287;SDS011;66345;42.694;23.346;2023-02-28T10:34:43;18.15;;;7.50;;
77287;SDS011;66345;42.694;23.346;2023-02-28T10:37:12;17.35;;;6.90;;
77287;SDS011;66345;42.694;23.346;2023-02-28T10:42:22;21.73;;;8.15;;
77287;SDS011;66345;42.694;23.346;2023-02-28T10:47:31;17.23;;;7.07;;
77287;SDS011;66345;42.694;23.346;2023-02-28T10:49:59;18.23;;;7.45;;
77287;SDS011;66345;42.694;23.346;2023-02-28T10:52:35;19.57;;;7.33;;
77287;SDS011;66345;42.694;23.346;2023-02-28T10:55:20;18.85;;;6.82;;
77287;SDS011;66345;42.694;23.346;2023-02-28T10:57:49;14.50;;;6.78;;
77287;SDS011;66345;42.694;23.346;2023-02-28T11:02:42;18.30;;;8.07;;
77287;SDS011;66345;42.694;23.346;2023-02-28T11:08:10;22.27;;;8.65;;
77287;SDS011;66345;42.694;23.346;2023-02-28T11:10:53;25.00;;;8.45;;
77287;SDS011;66345;42.694;23.346;2023-02-28T11:13:21;19.98;;;7.88;;
77287;SDS011;66345;42.694;23.346;2023-02-28T11:15:59;21.87;;;8.47;;
77287;SDS011;66345;42.694;23.346;2023-02-28T11:21:08;20.05;;;7.85;;
77287;SDS011;66345;42.694;23.346;2023-02-28T11:23:40;22.50;;;7.75;;
77287;SDS011;66345;42.694;23.346;2023-02-28T11:26:07;21.10;;;7.43;;
77287;SDS011;66345;42.694;23.346;2023-02-28T11:28:39;24.97;;;8.20;;
77287;SDS011;66345;42.694;23.346;2023-02-28T11:33:42;19.50;;;8.20;;
77287;SDS011;66345;42.694;23.346;2023-02-28T11:36:14;20.13;;;7.63;;
77287;SDS011;66345;42.694;23.346;2023-02-28T11:38:44;19.70;;;7.80;;
77287;SDS011;66345;42.694;23.346;2023-02-28T11:46:47;20.23;;;8.18;;
77287;SDS011;66345;42.694;23.346;2023-02-28T11:49:27;18.65;;;7.47;;
77287;SDS011;66345;42.694;23.346;2023-02-28T11:52:00;17.13;;;6.82;;
77287;SDS011;66345;42.694;23.346;2023-02-28T12:05:54;25.67;;;8.80;;
77287;SDS011;66345;42.694;23.346;2023-02-28T12:14:25;17.27;;;8.05;;
77287;SDS011;66345;42.694;23.346;2023-02-28T12:22:49;19.08;;;8.15;;
77287;SDS011;66345;42.694;23.346;2023-02-28T12:28:12;19.08;;;7.13;;
77287;SDS011;66345;42.694;23.346;2023-02-28T12:30:46;23.92;;;7.63;;
77287;SDS011;66345;42.694;23.346;2023-02-28T12:33:16;18.67;;;7.82;;
77287;SDS011;66345;42.694;23.346;2023-02-28T12:35:51;20.05;;;8.20;;
77287;SDS011;66345;42.694;23.346;2023-02-28T12:38:24;24.27;;;8.88;;
77287;SDS011;66345;42.694;23.346;2023-02-28T12:40:54;21.73;;;8.02;;
77287;SDS011;66345;42.694;23.346;2023-02-28T12:43:26;18.45;;;7.28;;
77287;SDS011;66345;42.694;23.346;2023-02-28T12:46:43;19.60;;;6.88;;
77287;SDS011;66345;42.694;23.346;2023-02-28T12:48:54;18.15;;;7.30;;
77287;SDS011;66345;42.694;23.346;2023-02-28T12:51:22;19.70;;;6.22;;
77287;SDS011;66345;42.694;23.346;2023-02-28T12:54:04;20.58;;;7.22;;
77287;SDS011;66345;42.694;23.346;2023-02-28T12:59:05;17.20;;;7.18;;
77287;SDS011;66345;42.694;23.346;2023-02-28T13:01:46;25.20;;;8.27;;
77287;SDS011;66345;42.694;23.346;2023-02-28T13:09:59;17.50;;;7.22;;
77287;SDS011;66345;42.694;23.346;2023-02-28T13:12:27;17.27;;;7.03;;
77287;SDS011;66345;42.694;23.346;2023-02-28T13:17:47;20.88;;;7.65;;
77287;SDS011;66345;42.694;23.346;2023-02-28T13:20:19;20.20;;;7.95;;
77287;SDS011;66345;42.694;23.346;2023-02-28T13:22:48;20.10;;;8.00;;
77287;SDS011;66345;42.694;23.346;2023-02-28T13:27:47;17.70;;;7.38;;
77287;SDS011;66345;42.694;23.346;2023-02-28T13:36:26;23.58;;;8.38;;
77287;SDS011;66345;42.694;23.346;2023-02-28T13:38:58;19.85;;;6.60;;
77287;SDS011;66345;42.694;23.346;2023-02-28T13:44:08;17.55;;;7.50;;
77287;SDS011;66345;42.694;23.346;2023-02-28T13:47:23;23.33;;;7.68;;
77287;SDS011;66345;42.694;23.346;2023-02-28T13:58:24;21.57;;;7.07;;
77287;SDS011;66345;42.694;23.346;2023-02-28T14:11:40;14.90;;;6.00;;
77287;SDS011;66345;42.694;23.346;2023-02-28T14:14:07;15.27;;;6.78;;
77287;SDS011;66345;42.694;23.346;2023-02-28T14:16:44;16.38;;;6.32;;
77287;SDS011;66345;42.694;23.346;2023-02-28T14:19:15;14.00;;;6.07;;
77287;SDS011;66345;42.694;23.346;2023-02-28T14:21:51;15.88;;;6.43;;
77287;SDS011;66345;42.694;23.346;2023-02-28T14:24:24;18.50;;;6.57;;
77287;SDS011;66345;42.694;23.346;2023-02-28T14:27:13;19.60;;;7.40;;
77287;SDS011;66345;42.694;23.346;2023-02-28T14:38:27;16.70;;;6.53;;
77287;SDS011;66345;42.694;23.346;2023-02-28T14:40:57;20.52;;;7.25;;
77287;SDS011;66345;42.694;23.346;2023-02-28T14:43:26;14.65;;;6.63;;
77287;SDS011;66345;42.694;23.346;2023-02-28T14:45:57;23.83;;;7.65;;
77287;SDS011;66345;42.694;23.346;2023-02-28T14:48:24;18.20;;;6.90;;
77287;SDS011;66345;42.694;23.346;2023-02-28T14:50:53;16.23;;;6.23;;
77287;SDS011;66345;42.694;23.346;2023-02-28T14:53:22;19.15;;;6.50;;
77287;SDS011;66345;42.694;23.346;2023-02-28T14:55:50;16.50;;;6.75;;
77287;SDS011;66345;42.694;23.346;2023-02-28T15:00:52;14.82;;;6.70;;
77287;SDS011;66345;42.694;23.346;2023-02-28T15:06:01;16.23;;;6.72;;
77287;SDS011;66345;42.694;23.346;2023-02-28T15:08:27;20.48;;;6.90;;
77287;SDS011;66345;42.694;23.346;2023-02-28T15:10:55;21.92;;;7.03;;
77287;SDS011;66345;42.694;23.346;2023-02-28T15:13:24;19.48;;;7.53;;
77287;SDS011;66345;42.694;23.346;2023-02-28T15:16:07;18.50;;;7.50;;
77287;SDS011;66345;42.694;23.346;2023-02-28T15:21:25;22.05;;;8.02;;
77287;SDS011;66345;42.694;23.346;2023-02-28T15:23:58;17.90;;;7.35;;
77287;SDS011;66345;42.694;23.346;2023-02-28T15:26:34;14.23;;;6.45;;
77287;SDS011;66345;42.694;23.346;2023-02-28T15:29:07;15.03;;;6.33;;
77287;SDS011;66345;42.694;23.346;2023-02-28T15:31:45;17.13;;;7.22;;
77287;SDS011;66345;42.694;23.346;2023-02-28T15:34:22;23.45;;;8.88;;
77287;SDS011;66345;42.694;23.346;2023-02-28T15:37:06;17.83;;;7.72;;
77287;SDS011;66345;42.694;23.346;2023-02-28T15:39:58;15.77;;;7.55;;
77287;SDS011;66345;42.694;23.346;2023-02-28T15:42:35;19.40;;;8.87;;
77287;SDS011;66345;42.694;23.346;2023-02-28T15:45:00;17.85;;;8.20;;
77287;SDS011;66345;42.694;23.346;2023-02-28T15:47:27;20.43;;;8.80;;
77287;SDS011;66345;42.694;23.346;2023-02-28T15:50:02;21.80;;;9.57;;
77287;SDS011;66345;42.694;23.346;2023-02-28T15:52:39;21.73;;;8.30;;
77287;SDS011;66345;42.694;23.346;2023-02-28T15:57:56;18.70;;;8.43;;
77287;SDS011;66345;42.694;23.346;2023-02-28T16:00:25;15.85;;;8.18;;
77287;SDS011;66345;42.694;23.346;2023-02-28T16:02:57;14.88;;;7.43;;
77287;SDS011;66345;42.694;23.346;2023-02-28T16:07:56;17.88;;;8.32;;
77287;SDS011;66345;42.694;23.346;2023-02-28T16:10:24;14.95;;;7.13;;
77287;SDS011;66345;42.694;23.346;2023-02-28T16:12:52;14.85;;;6.82;;
77287;SDS011;66345;42.694;23.346;2023-02-28T16:15:24;13.57;;;5.85;;
77287;SDS011;66345;42.694;23.346;2023-02-28T16:17:52;12.80;;;6.63;;
77287;SDS011;66345;42.694;23.346;2023-02-28T16:20:19;13.00;;;5.93;;
77287;SDS011;66345;42.694;23.346;2023-02-28T18:58:24;11.05;;;5.10;;
77287;SDS011;66345;42.694;23.346;2023-02-28T19:00:51;13.13;;;5.55;;
77287;SDS011;66345;42.694;23.346;2023-02-28T19:03:17;12.90;;;5.87;;
77287;SDS011;66345;42.694;23.346;2023-02-28T19:05:42;14.10;;;6.03;;
77287;SDS011;66345;42.694;23.346;2023-02-28T19:08:07;11.27;;;5.70;;
77287;SDS011;66345;42.694;23.346;2023-02-28T19:10:36;10.75;;;5.43;;
77287;SDS011;66345;42.694;23.346;2023-02-28T19:13:03;14.13;;;5.37;;
77287;SDS011;66345;42.694;23.346;2023-02-28T19:15:30;10.35;;;4.75;;
77287;SDS011;66345;42.694;23.346;2023-02-28T19:17:57;11.77;;;4.80;;
77287;SDS011;66345;42.694;23.346;2023-02-28T19:20:22;10.27;;;4.23;;
77287;SDS011;66345;42.694;23.346;2023-02-28T19:22:48;9.93;;;4.70;;
77287;SDS011;66345;42.694;23.346;2023-02-28T19:25:13;9.50;;;4.27;;
77287;SDS011;66345;42.694;23.346;2023-02-28T19:27:39;10.93;;;4.67;;
77287;SDS011;66345;42.694;23.346;2023-02-28T19:30:04;10.70;;;4.77;;
77287;SDS011;66345;42.694;23.346;2023-02-28T19:32:31;9.80;;;4.43;;
77287;SDS011;66345;42.694;23.346;2023-02-28T19:34:57;9.77;;;4.22;;
77287;SDS011;66345;42.694;23.346;2023-02-28T19:37:22;13.83;;;4.53;;
77287;SDS011;66345;42.694;23.346;2023-02-28T19:39:48;11.10;;;4.70;;
77287;SDS011;66345;42.694;23.346;2023-02-28T19:42:14;9.60;;;4.60;;
77287;SDS011;66345;42.694;23.346;2023-02-28T19:44:41;10.57;;;4.68;;
77287;SDS011;66345;42.694;23.346;2023-02-28T19:47:07;11.40;;;4.90;;
77287;SDS011;66345;42.694;23.346;2023-02-28T19:49:33;9.57;;;3.93;;
77287;SDS011;66345;42.694;23.346;2023-02-28T19:51:59;12.65;;;4.05;;
77287;SDS011;66345;42.694;23.346;2023-02-28T19:54:25;7.43;;;3.42;;
77287;SDS011;66345;42.694;23.346;2023-02-28T19:56:51;8.90;;;3.92;;
77287;SDS011;66345;42.694;23.346;2023-02-28T19:59:22;8.70;;;3.50;;
77287;SDS011;66345;42.694;23.346;2023-02-28T20:01:50;8.43;;;3.70;;
77287;SDS011;66345;42.694;23.346;2023-02-28T20:04:23;8.60;;;3.50;;
77287;SDS011;66345;42.694;23.346;2023-02-28T20:06:50;9.33;;;4.13;;
77287;SDS011;66345;42.694;23.346;2023-02-28T20:09:16;10.88;;;4.20;;
77287;SDS011;66345;42.694;23.346;2023-02-28T20:11:42;8.32;;;3.60;;
77287;SDS011;66345;42.694;23.346;2023-02-28T20:14:09;10.43;;;4.43;;
77287;SDS011;66345;42.694;23.346;2023-02-28T20:16:35;12.73;;;4.80;;
77287;SDS011;66345;42.694;23.346;2023-02-28T20:19:00;12.60;;;5.30;;
77287;SDS011;66345;42.694;23.346;2023-02-28T20:21:25;10.90;;;5.32;;
77287;SDS011;66345;42.694;23.346;2023-02-28T20:23:51;12.77;;;5.87;;
77287;SDS011;66345;42.694;23.346;2023-02-28T20:26:16;13.30;;;4.93;;
77287;SDS011;66345;42.694;23.346;2023-02-28T20:28:44;12.73;;;5.70;;
77287;SDS011;66345;42.694;23.346;2023-02-28T20:31:14;13.35;;;5.93;;
77287;SDS011;66345;42.694;23.346;2023-02-28T20:33:42;13.43;;;5.50;;
77287;SDS011;66345;42.694;23.346;2023-02-28T20:36:07;13.57;;;6.03;;
77287;SDS011;66345;42.694;23.346;2023-02-28T20:38:34;13.68;;;6.13;;
77287;SDS011;66345;42.694;23.346;2023-02-28T20:41:00;15.13;;;6.87;;
77287;SDS011;66345;42.694;23.346;2023-02-28T20:43:26;14.43;;;6.38;;
77287;SDS011;66345;42.694;23.346;2023-02-28T20:45:53;14.40;;;6.90;;
77287;SDS011;66345;42.694;23.346;2023-02-28T20:48:22;13.50;;;6.15;;
77287;SDS011;66345;42.694;23.346;2023-02-28T20:50:52;12.70;;;6.15;;
77287;SDS011;66345;42.694;23.346;2023-02-28T20:53:19;11.90;;;5.77;;
77287;SDS011;66345;42.694;23.346;2023-02-28T20:55:52;11.90;;;5.35;;
77287;SDS011;66345;42.694;23.346;2023-02-28T20:58:26;10.25;;;5.13;;
77287;SDS011;66345;42.694;23.346;2023-02-28T21:03:43;11.13;;;5.22;;
77287;SDS011;66345;42.694;23.346;2023-02-28T21:06:13;11.27;;;4.93;;
77287;SDS011;66345;42.694;23.346;2023-02-28T21:08:40;9.30;;;4.47;;
77287;SDS011;66345;42.694;23.346;2023-02-28T21:11:12;9.50;;;4.47;;
77287;SDS011;66345;42.694;23.346;2023-02-28T21:13:40;8.45;;;4.18;;
77287;SDS011;66345;42.694;23.346;2023-02-28T21:16:07;9.77;;;4.68;;
77287;SDS011;66345;42.694;23.346;2023-02-28T21:18:35;11.07;;;4.50;;